createdAt,value
2018-09-02T00:00:32.024Z,13.73
2018-09-02T00:02:59.820Z,13.47
2018-09-02T00:05:27.938Z,13.57
2018-09-02T00:07:55.838Z,13.44
2018-09-02T00:10:23.377Z,13.60
2018-09-02T00:12:50.895Z,13.62
2018-09-02T00:15:18.543Z,13.28
2018-09-02T00:17:46.133Z,13.35
2018-09-02T00:20:13.831Z,13.34
2018-09-02T00:22:41.384Z,13.49
2018-09-02T00:25:08.915Z,13.46
2018-09-02T00:27:36.733Z,13.34
2018-09-02T00:30:04.331Z,13.32
2018-09-02T00:32:31.863Z,13.30
2018-09-02T00:34:59.403Z,13.32
2018-09-02T00:37:26.929Z,13.32
2018-09-02T00:39:54.474Z,13.33
2018-09-02T00:42:22.006Z,13.38
2018-09-02T00:44:49.526Z,13.38
2018-09-02T00:47:17.124Z,13.37
2018-09-02T00:49:44.755Z,13.46
2018-09-02T00:52:12.719Z,13.48
2018-09-02T00:54:40.230Z,13.51
2018-09-02T00:57:07.842Z,13.52
2018-09-02T00:59:35.699Z,13.55
2018-09-02T01:02:03.247Z,13.56
2018-09-02T01:04:30.816Z,13.53
2018-09-02T01:06:58.384Z,13.54
2018-09-02T01:09:25.926Z,13.56
2018-09-02T01:11:53.508Z,13.49
2018-09-02T01:14:21.030Z,13.51
2018-09-02T01:16:48.554Z,13.46
2018-09-02T01:19:16.099Z,13.41
2018-09-02T01:21:43.619Z,13.41
2018-09-02T01:24:11.960Z,13.39
2018-09-02T01:26:39.483Z,13.41
2018-09-02T01:29:07.042Z,13.44
2018-09-02T01:31:34.580Z,13.46
2018-09-02T01:34:02.101Z,13.48
2018-09-02T01:36:29.625Z,13.45
2018-09-02T01:38:57.157Z,13.41
2018-09-02T01:41:24.714Z,13.48
2018-09-02T01:43:52.306Z,13.48
2018-09-02T01:46:19.849Z,13.51
2018-09-02T01:48:47.920Z,13.46
2018-09-02T01:51:15.433Z,13.43
2018-09-02T01:53:42.992Z,13.28
2018-09-02T01:56:10.561Z,13.36
2018-09-02T01:58:38.133Z,13.35
2018-09-02T02:01:05.799Z,13.41
2018-09-02T02:03:33.666Z,13.32
2018-09-02T02:06:01.185Z,13.33
2018-09-02T02:08:28.699Z,13.19
2018-09-02T02:10:56.249Z,13.11
2018-09-02T02:13:23.775Z,13.18
2018-09-02T02:15:51.302Z,13.05
2018-09-02T02:18:18.835Z,12.99
2018-09-02T02:20:46.418Z,12.90
2018-09-02T02:23:13.993Z,12.80
2018-09-02T02:25:41.521Z,12.87
2018-09-02T02:28:09.366Z,12.76
2018-09-02T02:30:36.883Z,12.73
2018-09-02T02:33:04.425Z,12.67
2018-09-02T02:35:31.983Z,12.58
2018-09-02T02:37:59.501Z,12.59
2018-09-02T02:40:27.365Z,12.54
2018-09-02T02:42:54.883Z,12.50
2018-09-02T02:45:22.394Z,12.51
2018-09-02T02:47:49.935Z,12.50
2018-09-02T02:50:17.447Z,12.59
2018-09-02T02:52:50.912Z,12.53
2018-09-02T02:55:18.483Z,12.38
2018-09-02T02:57:45.982Z,12.43
2018-09-02T03:00:13.610Z,12.41
2018-09-02T03:02:41.155Z,12.36
2018-09-02T03:05:08.694Z,12.37
2018-09-02T03:07:36.228Z,12.42
2018-09-02T03:10:03.843Z,12.42
2018-09-02T03:12:31.391Z,12.45
2018-09-02T03:14:58.898Z,12.34
2018-09-02T03:17:26.464Z,12.37
2018-09-02T03:19:54.019Z,12.20
2018-09-02T03:22:21.610Z,12.22
2018-09-02T03:24:49.206Z,12.28
2018-09-02T03:27:16.704Z,12.30
2018-09-02T03:29:44.234Z,12.19
2018-09-02T03:32:11.783Z,12.32
2018-09-02T03:34:39.310Z,12.20
2018-09-02T03:37:06.919Z,12.17
2018-09-02T03:39:34.446Z,12.15
2018-09-02T03:42:02.007Z,12.23
2018-09-02T03:44:29.845Z,12.22
2018-09-02T03:46:57.354Z,12.17
2018-09-02T03:49:24.890Z,12.14
2018-09-02T03:51:52.432Z,12.08
2018-09-02T03:54:19.973Z,12.17
2018-09-02T03:56:47.542Z,12.09
2018-09-02T03:59:15.140Z,12.33
2018-09-02T04:01:42.967Z,12.17
2018-09-02T04:04:10.494Z,12.21
2018-09-02T04:06:38.139Z,12.21
2018-09-02T04:09:06.822Z,12.25
2018-09-02T04:11:34.331Z,12.35
2018-09-02T04:14:01.938Z,12.13
2018-09-02T04:16:29.451Z,12.30
2018-09-02T04:18:56.965Z,12.32
2018-09-02T04:21:24.522Z,12.21
2018-09-02T04:23:52.061Z,12.12
2018-09-02T04:26:19.610Z,12.17
2018-09-02T04:28:47.127Z,12.09
2018-09-02T04:31:14.641Z,12.22
2018-09-02T04:33:43.180Z,12.23
2018-09-02T04:36:10.688Z,12.07
2018-09-02T04:38:38.235Z,12.23
2018-09-02T04:41:05.759Z,12.26
2018-09-02T04:43:33.293Z,12.19
2018-09-02T04:46:00.862Z,12.19
2018-09-02T04:48:28.385Z,12.14
2018-09-02T04:50:55.936Z,12.02
2018-09-02T04:53:23.538Z,12.11
2018-09-02T04:55:51.129Z,12.10
2018-09-02T04:58:18.657Z,12.24
2018-09-02T05:00:46.217Z,12.19
2018-09-02T05:03:13.765Z,12.12
2018-09-02T05:05:41.310Z,12.14
2018-09-02T05:08:08.834Z,12.17
2018-09-02T05:10:36.666Z,12.18
2018-09-02T05:13:04.198Z,12.19
2018-09-02T05:15:31.739Z,12.28
2018-09-02T05:17:59.343Z,12.36
2018-09-02T05:20:28.037Z,12.13
2018-09-02T05:22:55.606Z,12.14
2018-09-02T05:25:23.114Z,12.29
2018-09-02T05:27:50.684Z,12.27
2018-09-02T05:30:18.309Z,12.17
2018-09-02T05:32:45.923Z,12.21
2018-09-02T05:35:13.442Z,12.33
2018-09-02T05:37:40.993Z,12.36
2018-09-02T05:40:08.556Z,12.33
2018-09-02T05:42:36.086Z,12.30
2018-09-02T05:45:04.014Z,12.34
2018-09-02T05:47:31.518Z,12.31
2018-09-02T05:49:59.049Z,12.31
2018-09-02T05:52:26.612Z,12.30
2018-09-02T05:54:54.198Z,12.34
2018-09-02T05:57:21.730Z,12.24
2018-09-02T05:59:49.255Z,12.15
2018-09-02T06:02:16.846Z,12.21
2018-09-02T06:04:44.358Z,12.17
2018-09-02T06:07:12.033Z,12.28
2018-09-02T06:09:39.572Z,12.26
2018-09-02T06:12:07.135Z,12.30
2018-09-02T06:14:35.862Z,12.29
2018-09-02T06:17:03.478Z,12.28
2018-09-02T06:19:30.997Z,12.33
2018-09-02T06:21:58.560Z,12.16
2018-09-02T06:24:26.169Z,12.16
2018-09-02T06:26:53.690Z,12.18
2018-09-02T06:29:21.260Z,12.15
2018-09-02T06:31:49.080Z,12.18
2018-09-02T06:34:16.607Z,12.28
2018-09-02T06:36:44.126Z,12.28
2018-09-02T06:39:12.386Z,12.29
2018-09-02T06:41:39.941Z,12.34
2018-09-02T06:44:08.156Z,12.34
2018-09-02T06:46:35.762Z,12.28
2018-09-02T06:49:03.313Z,12.20
2018-09-02T06:51:31.203Z,12.20
2018-09-02T06:53:58.754Z,12.29
2018-09-02T06:56:26.384Z,12.22
2018-09-02T06:58:53.920Z,12.23
2018-09-02T07:01:21.909Z,12.35
2018-09-02T07:03:49.434Z,12.37
2018-09-02T07:06:16.994Z,12.31
2018-09-02T07:08:44.526Z,12.35
2018-09-02T07:11:12.287Z,12.44
2018-09-02T07:13:39.831Z,12.33
2018-09-02T07:16:07.539Z,12.43
2018-09-02T07:18:35.204Z,12.41
2018-09-02T07:21:02.725Z,12.38
2018-09-02T07:23:30.242Z,12.37
2018-09-02T07:25:57.830Z,12.38
2018-09-02T07:28:25.412Z,12.36
2018-09-02T07:30:52.997Z,12.31
2018-09-02T07:33:20.602Z,12.43
2018-09-02T07:35:48.226Z,12.52
2018-09-02T07:38:15.898Z,12.63
2018-09-02T07:40:43.535Z,12.63
2018-09-02T07:43:11.051Z,12.54
2018-09-02T07:45:38.646Z,12.56
2018-09-02T07:48:06.190Z,12.52
2018-09-02T07:50:33.756Z,12.67
2018-09-02T07:53:01.292Z,12.54
2018-09-02T07:55:28.821Z,12.53
2018-09-02T07:57:56.411Z,12.49
2018-09-02T08:00:23.991Z,12.48
2018-09-02T08:02:51.582Z,12.41
2018-09-02T08:05:19.106Z,12.37
2018-09-02T08:07:46.663Z,12.37
2018-09-02T08:10:14.183Z,12.43
2018-09-02T08:12:41.909Z,12.57
2018-09-02T08:15:09.564Z,12.47
2018-09-02T08:17:37.123Z,12.50
2018-09-02T08:20:04.890Z,12.56
2018-09-02T08:22:33.849Z,12.48
2018-09-02T08:25:01.429Z,12.47
2018-09-02T08:27:29.040Z,12.51
2018-09-02T08:29:56.564Z,12.56
2018-09-02T08:32:24.151Z,12.63
2018-09-02T08:34:51.801Z,12.48
2018-09-02T08:37:19.448Z,12.49
2018-09-02T08:39:47.020Z,12.42
2018-09-02T08:42:14.611Z,12.36
2018-09-02T08:44:42.211Z,12.50
2018-09-02T08:47:09.758Z,12.56
2018-09-02T08:49:37.354Z,12.54
2018-09-02T08:52:05.259Z,12.37
2018-09-02T08:54:32.826Z,12.40
2018-09-02T08:57:01.217Z,12.39
2018-09-02T08:59:28.782Z,12.47
2018-09-02T09:01:56.360Z,12.62
2018-09-02T09:04:24.087Z,12.67
2018-09-02T09:06:51.645Z,12.54
2018-09-02T09:09:19.402Z,12.60
2018-09-02T09:11:46.842Z,12.68
2018-09-02T09:14:14.398Z,12.89
2018-09-02T09:16:42.056Z,13.01
2018-09-02T09:19:09.590Z,12.92
2018-09-02T09:21:37.203Z,12.99
2018-09-02T09:24:04.846Z,13.10
2018-09-02T09:26:32.381Z,13.00
2018-09-02T09:28:59.925Z,12.99
2018-09-02T09:31:27.490Z,13.11
2018-09-02T09:33:55.048Z,13.16
2018-09-02T09:36:22.607Z,13.27
2018-09-02T09:38:50.184Z,13.25
2018-09-02T09:41:17.762Z,13.22
2018-09-02T09:43:45.331Z,13.08
2018-09-02T09:46:13.018Z,13.12
2018-09-02T09:48:40.598Z,13.15
2018-09-02T09:51:08.214Z,13.17
2018-09-02T09:53:35.759Z,13.23
2018-09-02T09:56:03.344Z,13.16
2018-09-02T09:58:30.931Z,13.16
2018-09-02T10:00:58.493Z,13.33
2018-09-02T10:03:26.074Z,13.18
2018-09-02T10:05:53.644Z,13.24
2018-09-02T10:08:21.163Z,13.20
2018-09-02T10:10:48.770Z,13.16
2018-09-02T10:13:16.334Z,13.16
2018-09-02T10:15:44.196Z,13.03
2018-09-02T10:18:11.874Z,13.01
2018-09-02T10:20:39.274Z,13.02
2018-09-02T10:23:06.885Z,13.05
2018-09-02T10:25:34.409Z,12.97
2018-09-02T10:28:02.036Z,13.04
2018-09-02T10:30:29.628Z,12.95
2018-09-02T10:32:57.787Z,13.01
2018-09-02T10:35:25.403Z,13.08
2018-09-02T10:37:52.984Z,12.90
2018-09-02T10:40:20.520Z,12.84
2018-09-02T10:42:48.143Z,12.86
2018-09-02T10:45:15.694Z,12.90
2018-09-02T10:47:43.290Z,12.87
2018-09-02T10:50:11.510Z,13.04
2018-09-02T10:52:39.066Z,13.13
2018-09-02T10:55:06.630Z,13.16
2018-09-02T10:57:34.215Z,13.28
2018-09-02T11:00:01.783Z,13.18
2018-09-02T11:02:29.359Z,13.25
2018-09-02T11:04:56.928Z,13.15
2018-09-02T11:07:24.518Z,13.27
2018-09-02T11:09:52.100Z,13.30
2018-09-02T11:12:19.662Z,13.28
2018-09-02T11:14:47.279Z,13.31
2018-09-02T11:17:14.838Z,13.39
2018-09-02T11:19:42.694Z,13.29
2018-09-02T11:22:10.466Z,13.35
2018-09-02T11:24:38.178Z,13.17
2018-09-02T11:27:05.929Z,13.21
2018-09-02T11:29:33.579Z,13.23
2018-09-02T11:32:01.153Z,13.25
2018-09-02T11:34:28.708Z,13.32
2018-09-02T11:36:56.332Z,13.28
2018-09-02T11:39:23.892Z,13.34
2018-09-02T11:41:51.438Z,13.13
2018-09-02T11:44:19.011Z,13.06
2018-09-02T11:46:46.600Z,13.05
2018-09-02T11:49:14.193Z,13.02
2018-09-02T11:51:41.767Z,12.99
2018-09-02T11:54:09.353Z,13.09
2018-09-02T11:56:36.909Z,13.13
2018-09-02T11:59:04.783Z,13.18
2018-09-02T12:01:32.346Z,13.20
2018-09-02T12:04:00.126Z,13.10
2018-09-02T12:06:27.597Z,13.05
2018-09-02T12:08:55.271Z,13.05
2018-09-02T12:11:22.960Z,13.15
2018-09-02T12:13:50.564Z,13.09
2018-09-02T12:16:18.130Z,13.10
2018-09-02T12:18:45.697Z,12.98
2018-09-02T12:21:13.262Z,13.05
2018-09-02T12:23:40.861Z,13.10
2018-09-02T12:26:08.447Z,13.14
2018-09-02T12:28:36.012Z,13.09
2018-09-02T12:31:03.607Z,13.02
2018-09-02T12:33:31.159Z,13.03
2018-09-02T12:35:58.737Z,13.12
2018-09-02T12:38:26.355Z,13.12
2018-09-02T12:40:54.422Z,13.06
2018-09-02T12:43:22.019Z,13.07
2018-09-02T12:45:49.654Z,13.20
2018-09-02T12:48:17.327Z,13.09
2018-09-02T12:50:44.796Z,13.05
2018-09-02T12:53:12.387Z,13.03
2018-09-02T12:55:40.033Z,13.03
2018-09-02T12:58:07.635Z,13.05
2018-09-02T13:00:35.219Z,13.15
2018-09-02T13:03:03.878Z,13.19
2018-09-02T13:05:31.440Z,13.12
2018-09-02T13:07:59.099Z,13.09
2018-09-02T13:10:26.708Z,13.15
2018-09-02T13:12:54.281Z,13.13
2018-09-02T13:15:21.920Z,13.22
2018-09-02T13:17:49.494Z,13.19
2018-09-02T13:20:17.074Z,13.09
2018-09-02T13:22:44.669Z,13.15
2018-09-02T13:25:12.262Z,13.27
2018-09-02T13:27:39.855Z,13.18
2018-09-02T13:30:08.111Z,13.27
2018-09-02T13:32:35.682Z,13.27
2018-09-02T13:35:03.291Z,13.28
2018-09-02T13:37:30.902Z,13.26
2018-09-02T13:39:58.529Z,13.25
2018-09-02T13:42:26.224Z,13.32
2018-09-02T13:44:53.809Z,13.26
2018-09-02T13:47:23.833Z,13.29
2018-09-02T13:49:51.411Z,13.32
2018-09-02T13:52:18.935Z,13.27
2018-09-02T13:54:46.590Z,13.31
2018-09-02T13:57:14.084Z,13.25
2018-09-02T13:59:41.724Z,13.30
2018-09-02T14:02:09.218Z,13.38
2018-09-02T14:04:36.814Z,13.31
2018-09-02T14:07:04.374Z,13.46
2018-09-02T14:09:31.977Z,13.44
2018-09-02T14:11:59.567Z,13.43
2018-09-02T14:14:27.412Z,13.39
2018-09-02T14:16:54.971Z,13.38
2018-09-02T14:19:22.502Z,13.43
2018-09-02T14:21:50.125Z,13.44
2018-09-02T14:24:17.674Z,13.57
2018-09-02T14:26:45.351Z,13.62
2018-09-02T14:29:12.950Z,13.61
2018-09-02T14:31:40.524Z,13.68
2018-09-02T14:34:08.128Z,13.72
2018-09-02T14:36:35.717Z,13.79
2018-09-02T14:39:04.926Z,13.68
2018-09-02T14:41:32.593Z,13.71
2018-09-02T14:44:00.198Z,13.57
2018-09-02T14:46:27.762Z,13.74
2018-09-02T14:48:55.332Z,13.72
2018-09-02T14:51:22.895Z,13.66
2018-09-02T14:53:50.448Z,13.71
2018-09-02T14:56:18.075Z,13.69
2018-09-02T14:58:45.707Z,13.75
2018-09-02T15:01:13.358Z,13.85
2018-09-02T15:03:41.279Z,13.82
2018-09-02T15:06:08.922Z,13.92
2018-09-02T15:08:36.510Z,13.99
2018-09-02T15:11:04.122Z,13.82
2018-09-02T15:13:32.147Z,13.79
2018-09-02T15:15:59.775Z,13.79
2018-09-02T15:18:27.658Z,13.77
2018-09-02T15:20:55.231Z,13.71
2018-09-02T15:23:22.898Z,13.71
2018-09-02T15:25:50.489Z,13.82
2018-09-02T15:28:18.034Z,13.77
2018-09-02T15:30:45.617Z,13.78
2018-09-02T15:33:13.379Z,13.77
2018-09-02T15:35:40.944Z,13.79
2018-09-02T15:38:08.507Z,13.72
2018-09-02T15:40:36.082Z,13.76
2018-09-02T15:43:03.708Z,13.71
2018-09-02T15:45:31.263Z,13.70
2018-09-02T15:47:58.878Z,13.68
2018-09-02T15:50:26.486Z,13.69
2018-09-02T15:52:54.069Z,13.71
2018-09-02T15:55:21.964Z,13.74
2018-09-02T15:57:49.544Z,13.78
2018-09-02T16:00:17.146Z,13.78
2018-09-02T16:02:44.824Z,13.77
2018-09-02T16:05:12.442Z,13.91
2018-09-02T16:07:40.055Z,13.81
2018-09-02T16:10:07.620Z,13.78
2018-09-02T16:12:35.181Z,13.78
2018-09-02T16:15:02.780Z,13.73
2018-09-02T16:17:30.349Z,13.75
2018-09-02T16:19:57.939Z,13.70
2018-09-02T16:22:26.028Z,13.66
2018-09-02T16:24:53.606Z,13.70
2018-09-02T16:27:21.481Z,13.72
2018-09-02T16:29:49.074Z,13.75
2018-09-02T16:32:16.642Z,13.79
2018-09-02T16:34:44.208Z,13.83
2018-09-02T16:37:11.844Z,13.82
2018-09-02T16:39:39.641Z,13.86
2018-09-02T16:42:07.199Z,13.80
2018-09-02T16:44:34.840Z,13.82
2018-09-02T16:47:02.700Z,13.88
2018-09-02T16:49:30.362Z,13.83
2018-09-02T16:51:58.878Z,13.83
2018-09-02T16:54:26.437Z,13.90
2018-09-02T16:56:54.001Z,13.95
2018-09-02T16:59:21.621Z,13.84
2018-09-02T17:01:49.201Z,13.93
2018-09-02T17:04:17.247Z,13.92
2018-09-02T17:06:44.889Z,13.83
2018-09-02T17:09:12.545Z,13.91
2018-09-02T17:11:40.556Z,13.82
2018-09-02T17:14:08.680Z,13.78
2018-09-02T17:16:36.294Z,13.71
2018-09-02T17:19:08.066Z,13.68
2018-09-02T17:21:35.731Z,13.77
2018-09-02T17:24:03.396Z,13.69
2018-09-02T17:26:30.964Z,13.67
2018-09-02T17:28:59.445Z,13.60
2018-09-02T17:31:27.014Z,13.69
2018-09-02T17:33:54.852Z,13.65
2018-09-02T17:36:22.414Z,13.64
2018-09-02T17:38:49.963Z,13.61
2018-09-02T17:41:18.560Z,13.59
2018-09-02T17:43:46.222Z,13.50
2018-09-02T17:46:13.815Z,13.56
2018-09-02T17:48:41.387Z,13.51
2018-09-02T17:51:08.954Z,13.51
2018-09-02T17:53:36.547Z,13.60
2018-09-02T17:56:04.162Z,13.52
2018-09-02T17:58:31.767Z,13.55
2018-09-02T18:00:59.897Z,13.51
2018-09-02T18:03:27.457Z,13.60
2018-09-02T18:05:55.033Z,13.54
2018-09-02T18:08:22.681Z,13.56
2018-09-02T18:10:50.294Z,13.66
2018-09-02T18:13:17.861Z,13.51
2018-09-02T18:15:45.469Z,13.47
2018-09-02T18:18:13.052Z,13.52
2018-09-02T18:20:40.651Z,13.53
2018-09-02T18:23:08.373Z,13.53
2018-09-02T18:25:36.134Z,13.47
2018-09-02T18:28:06.732Z,13.53
2018-09-02T18:30:34.373Z,13.66
2018-09-02T18:33:01.931Z,13.57
2018-09-02T18:35:29.792Z,13.58
2018-09-02T18:37:57.682Z,13.61
2018-09-02T18:40:25.297Z,13.50
2018-09-02T18:42:52.897Z,13.56
2018-09-02T18:45:20.568Z,13.48
2018-09-02T18:47:48.859Z,13.60
2018-09-02T18:50:16.819Z,13.57
2018-09-02T18:52:44.495Z,13.49
2018-09-02T18:55:12.377Z,13.57
2018-09-02T18:57:40.273Z,13.55
2018-09-02T19:00:08.275Z,13.55
2018-09-02T19:02:35.880Z,13.60
2018-09-02T19:05:03.639Z,13.52
2018-09-02T19:07:31.247Z,13.52
2018-09-02T19:09:58.951Z,13.63
2018-09-02T19:12:26.458Z,13.57
2018-09-02T19:14:54.076Z,13.61
2018-09-02T19:17:21.627Z,13.68
2018-09-02T19:19:49.225Z,13.60
2018-09-02T19:22:17.292Z,13.58
2018-09-02T19:24:44.908Z,13.57
2018-09-02T19:27:12.486Z,13.59
2018-09-02T19:29:40.124Z,13.53
2018-09-02T19:32:09.154Z,13.59
2018-09-02T19:34:36.724Z,13.46
2018-09-02T19:37:04.305Z,13.42
2018-09-02T19:39:32.618Z,13.42
2018-09-02T19:42:00.190Z,13.38
2018-09-02T19:44:27.750Z,13.50
2018-09-02T19:46:55.400Z,13.47
2018-09-02T19:49:23.106Z,13.46
2018-09-02T19:51:50.669Z,13.44
2018-09-02T19:54:18.548Z,13.50
2018-09-02T19:56:46.107Z,13.50
2018-09-02T19:59:13.679Z,13.44
2018-09-02T20:01:41.243Z,13.44
2018-09-02T20:04:08.790Z,13.40
2018-09-02T20:06:36.471Z,13.36
2018-09-02T20:09:06.544Z,13.43
2018-09-02T20:11:34.123Z,13.55
2018-09-02T20:14:01.694Z,13.52
2018-09-02T20:16:29.244Z,13.51
2018-09-02T20:18:57.157Z,13.49
2018-09-02T20:21:24.655Z,13.51
2018-09-02T20:23:52.216Z,13.46
2018-09-02T20:26:19.790Z,13.48
2018-09-02T20:28:47.345Z,13.47
2018-09-02T20:31:14.885Z,13.52
2018-09-02T20:33:42.498Z,13.58
2018-09-02T20:36:10.171Z,13.64
2018-09-02T20:38:37.828Z,13.68
2018-09-02T20:41:05.386Z,13.58
2018-09-02T20:43:32.919Z,13.58
2018-09-02T20:46:00.473Z,13.55
2018-09-02T20:48:28.025Z,13.59
2018-09-02T20:50:55.625Z,13.56
2018-09-02T20:53:23.223Z,13.58
2018-09-02T20:55:50.789Z,13.63
2018-09-02T20:58:18.365Z,13.69
2018-09-02T21:00:45.946Z,13.71
2018-09-02T21:03:13.494Z,13.61
2018-09-02T21:05:41.114Z,13.58
2018-09-02T21:08:08.654Z,13.58
2018-09-02T21:10:36.232Z,13.55
2018-09-02T21:13:03.808Z,13.59
2018-09-02T21:15:31.360Z,13.58
2018-09-02T21:17:58.935Z,13.69
2018-09-02T21:20:26.504Z,13.63
2018-09-02T21:22:54.361Z,13.62
2018-09-02T21:25:21.910Z,13.61
2018-09-02T21:27:49.447Z,13.61
2018-09-02T21:30:17.041Z,13.73
2018-09-02T21:32:44.574Z,13.73
2018-09-02T21:35:12.140Z,13.68
2018-09-02T21:37:39.884Z,13.62
2018-09-02T21:40:07.438Z,13.62
2018-09-02T21:42:35.010Z,13.69
2018-09-02T21:45:02.635Z,13.71
2018-09-02T21:47:30.181Z,13.59
2018-09-02T21:49:57.836Z,13.71
2018-09-02T21:52:25.425Z,13.74
2018-09-02T21:54:52.967Z,13.59
2018-09-02T21:57:20.558Z,13.64
2018-09-02T21:59:48.124Z,13.65
2018-09-02T22:02:15.676Z,13.62
2018-09-02T22:04:43.293Z,13.65
2018-09-02T22:07:10.815Z,13.62
2018-09-02T22:09:39.415Z,13.64
2018-09-02T22:12:07.047Z,13.58
2018-09-02T22:14:34.597Z,13.61
2018-09-02T22:17:02.160Z,13.63
2018-09-02T22:19:29.681Z,13.61
2018-09-02T22:21:57.287Z,13.57
2018-09-02T22:24:24.862Z,13.61
2018-09-02T22:26:52.375Z,13.61
2018-09-02T22:29:20.270Z,13.61
2018-09-02T22:31:47.891Z,13.65
2018-09-02T22:34:15.448Z,13.67
2018-09-02T22:36:43.068Z,13.74
2018-09-02T22:39:10.601Z,13.62
2018-09-02T22:41:38.876Z,13.63
2018-09-02T22:44:06.469Z,13.64
2018-09-02T22:46:33.999Z,13.72
2018-09-02T22:49:01.570Z,13.59
2018-09-02T22:51:29.727Z,13.64
2018-09-02T22:53:57.327Z,13.66
2018-09-02T22:56:24.911Z,13.68
2018-09-02T22:58:52.455Z,13.55
2018-09-02T23:01:20.028Z,13.69
2018-09-02T23:03:47.678Z,13.74
2018-09-02T23:06:15.285Z,13.64
2018-09-02T23:08:42.871Z,13.52
2018-09-02T23:11:10.385Z,13.62
2018-09-02T23:13:37.979Z,13.67
2018-09-02T23:16:05.626Z,13.65
2018-09-02T23:18:33.189Z,13.60
2018-09-02T23:21:00.852Z,13.64
2018-09-02T23:23:28.447Z,13.53
2018-09-02T23:25:56.073Z,13.63
2018-09-02T23:28:23.665Z,13.63
2018-09-02T23:30:51.217Z,13.63
2018-09-02T23:33:18.844Z,13.68
2018-09-02T23:35:46.408Z,13.66
2018-09-02T23:38:13.948Z,13.63
2018-09-02T23:40:41.493Z,13.62
2018-09-02T23:43:09.042Z,13.66
2018-09-02T23:45:36.570Z,13.72
2018-09-02T23:48:04.421Z,13.71
2018-09-02T23:50:31.962Z,13.68
2018-09-02T23:52:59.462Z,13.66
2018-09-02T23:55:27.047Z,13.69
2018-09-02T23:57:54.623Z,13.61
